createdAt,value
2018-11-25T00:02:11.806Z,111.10
2018-11-25T00:04:52.409Z,116.43
2018-11-25T00:07:34.842Z,109.13
2018-11-25T00:10:12.835Z,118.80
2018-11-25T00:12:52.950Z,113.50
2018-11-25T00:15:32.557Z,113.13
2018-11-25T00:18:12.406Z,115.43
2018-11-25T00:20:52.064Z,110.00
2018-11-25T00:23:32.017Z,112.20
2018-11-25T00:26:11.843Z,112.73
2018-11-25T00:28:51.671Z,112.20
2018-11-25T00:31:31.505Z,109.63
2018-11-25T00:34:11.157Z,107.63
2018-11-25T00:36:50.823Z,107.23
2018-11-25T00:39:30.746Z,108.57
2018-11-25T00:42:10.457Z,116.83
2018-11-25T00:44:50.231Z,110.63
2018-11-25T00:47:30.164Z,128.33
2018-11-25T00:50:11.869Z,108.13
2018-11-25T00:52:52.044Z,119.67
2018-11-25T00:55:31.777Z,134.93
2018-11-25T00:58:11.825Z,136.40
2018-11-25T01:00:51.867Z,139.63
2018-11-25T01:03:31.752Z,140.43
2018-11-25T01:06:11.602Z,120.57
2018-11-25T01:08:51.710Z,130.27
2018-11-25T01:11:31.754Z,115.73
2018-11-25T01:14:12.326Z,136.40
2018-11-25T01:16:52.699Z,134.87
2018-11-25T01:19:33.023Z,117.03
2018-11-25T01:22:12.874Z,153.83
2018-11-25T01:24:52.829Z,124.87
2018-11-25T01:27:32.699Z,150.87
2018-11-25T01:30:14.573Z,132.47
2018-11-25T01:32:54.651Z,127.80
2018-11-25T01:35:34.627Z,110.53
2018-11-25T01:38:14.608Z,128.40
2018-11-25T01:40:54.610Z,117.63
2018-11-25T01:43:34.398Z,116.90
2018-11-25T01:46:14.320Z,108.50
2018-11-25T01:48:54.093Z,120.30
2018-11-25T01:51:34.829Z,124.00
2018-11-25T01:54:15.318Z,127.87
2018-11-25T01:56:54.988Z,141.60
2018-11-25T01:59:34.815Z,126.60
2018-11-25T02:02:14.694Z,121.80
2018-11-25T02:04:54.364Z,129.50
2018-11-25T02:07:34.382Z,133.10
2018-11-25T02:10:16.766Z,133.33
2018-11-25T02:12:57.026Z,125.67
2018-11-25T02:15:36.745Z,138.23
2018-11-25T02:18:16.366Z,119.57
2018-11-25T02:20:56.196Z,143.80
2018-11-25T02:23:35.769Z,109.23
2018-11-25T02:26:15.956Z,144.37
2018-11-25T02:28:56.426Z,129.53
2018-11-25T02:31:36.415Z,141.83
2018-11-25T02:34:16.440Z,148.90
2018-11-25T02:36:55.977Z,157.47
2018-11-25T02:39:35.764Z,149.57
2018-11-25T02:42:15.522Z,155.93
2018-11-25T02:44:55.421Z,187.07
2018-11-25T02:47:35.832Z,132.43
2018-11-25T02:50:26.153Z,140.50
2018-11-25T02:53:07.027Z,162.33
2018-11-25T02:55:47.013Z,144.00
2018-11-25T02:58:27.470Z,178.07
2018-11-25T03:01:07.749Z,161.87
2018-11-25T03:03:48.305Z,196.40
2018-11-25T03:06:28.175Z,162.87
2018-11-25T03:09:07.813Z,198.33
2018-11-25T03:11:47.787Z,162.80
2018-11-25T03:14:28.339Z,181.40
2018-11-25T03:17:09.281Z,156.43
2018-11-25T03:19:49.947Z,179.27
2018-11-25T03:22:30.908Z,189.57
2018-11-25T03:25:19.346Z,161.53
2018-11-25T03:27:59.311Z,226.53
2018-11-25T03:30:39.430Z,162.00
2018-11-25T03:33:20.090Z,190.70
2018-11-25T03:35:59.981Z,205.73
2018-11-25T03:38:39.750Z,204.23
2018-11-25T03:41:19.712Z,154.87
2018-11-25T03:43:59.568Z,178.80
2018-11-25T03:46:39.151Z,197.73
2018-11-25T03:49:18.782Z,191.90
2018-11-25T03:51:58.652Z,199.90
2018-11-25T03:54:38.379Z,210.90
2018-11-25T03:57:18.776Z,305.47
2018-11-25T03:59:58.642Z,202.30
2018-11-25T04:02:39.087Z,164.90
2018-11-25T04:05:18.790Z,213.70
2018-11-25T04:07:58.791Z,202.93
2018-11-25T04:10:38.762Z,209.47
2018-11-25T04:13:18.591Z,232.90
2018-11-25T04:15:58.367Z,234.20
2018-11-25T04:18:38.688Z,205.57
2018-11-25T04:21:18.410Z,230.83
2018-11-25T04:23:58.283Z,211.87
2018-11-25T04:26:38.207Z,217.67
2018-11-25T04:29:18.090Z,220.63
2018-11-25T04:31:58.850Z,227.13
2018-11-25T04:34:39.372Z,281.43
2018-11-25T04:37:19.270Z,231.60
2018-11-25T04:39:59.029Z,230.23
2018-11-25T04:42:38.642Z,227.67
2018-11-25T04:45:18.720Z,215.53
2018-11-25T04:47:59.637Z,216.77
2018-11-25T04:50:40.207Z,217.73
2018-11-25T04:53:21.063Z,226.43
2018-11-25T04:56:01.520Z,228.50
2018-11-25T04:58:41.267Z,236.37
2018-11-25T05:01:21.310Z,200.43
2018-11-25T05:04:01.882Z,178.80
2018-11-25T05:06:41.680Z,213.10
2018-11-25T05:09:22.633Z,215.90
2018-11-25T05:12:03.363Z,198.33
2018-11-25T05:14:44.187Z,246.13
2018-11-25T05:17:24.750Z,197.17
2018-11-25T05:20:06.893Z,216.97
2018-11-25T05:22:46.881Z,217.10
2018-11-25T05:25:27.606Z,218.17
2018-11-25T05:28:07.347Z,255.00
2018-11-25T05:30:47.100Z,214.73
2018-11-25T05:33:26.997Z,200.60
2018-11-25T05:36:07.128Z,253.67
2018-11-25T05:38:47.750Z,213.37
2018-11-25T05:41:27.610Z,205.63
2018-11-25T05:44:08.158Z,230.23
2018-11-25T05:46:47.838Z,225.43
2018-11-25T05:49:27.730Z,301.50
2018-11-25T05:52:07.574Z,236.60
2018-11-25T05:54:47.331Z,248.57
2018-11-25T05:57:27.995Z,247.23
2018-11-25T06:00:10.721Z,288.37
2018-11-25T06:02:50.736Z,278.73
2018-11-25T06:05:30.591Z,214.90
2018-11-25T06:08:11.011Z,246.40
2018-11-25T06:10:51.873Z,206.33
2018-11-25T06:13:32.521Z,206.03
2018-11-25T06:16:13.059Z,263.07
2018-11-25T06:18:52.960Z,184.10
2018-11-25T06:21:33.488Z,252.83
2018-11-25T06:24:13.526Z,205.80
2018-11-25T06:26:53.218Z,227.60
2018-11-25T06:29:33.348Z,246.93
2018-11-25T06:32:13.300Z,222.67
2018-11-25T06:34:53.269Z,225.40
2018-11-25T06:37:33.057Z,219.50
2018-11-25T06:40:18.538Z,227.37
2018-11-25T06:42:58.714Z,241.70
2018-11-25T06:45:38.955Z,205.50
2018-11-25T06:48:18.568Z,256.50
2018-11-25T06:50:58.198Z,220.47
2018-11-25T06:53:38.002Z,213.60
2018-11-25T06:56:17.843Z,233.43
2018-11-25T06:58:57.776Z,251.53
2018-11-25T07:01:37.614Z,245.90
2018-11-25T07:04:17.355Z,250.93
2018-11-25T07:06:57.930Z,213.13
2018-11-25T07:09:38.405Z,298.37
2018-11-25T07:12:18.578Z,238.23
2018-11-25T07:14:58.455Z,281.43
2018-11-25T07:17:38.306Z,224.97
2018-11-25T07:20:18.589Z,258.43
2018-11-25T07:22:58.949Z,276.73
2018-11-25T07:25:39.465Z,259.73
2018-11-25T07:28:19.219Z,292.50
2018-11-25T07:30:59.010Z,285.73
2018-11-25T07:33:38.870Z,240.27
2018-11-25T07:36:18.817Z,263.50
2018-11-25T07:38:59.501Z,294.30
2018-11-25T07:41:40.170Z,305.67
2018-11-25T07:44:19.926Z,316.73
2018-11-25T07:46:59.622Z,285.10
2018-11-25T07:49:39.425Z,289.30
2018-11-25T07:52:19.151Z,306.77
2018-11-25T07:54:58.731Z,276.40
2018-11-25T07:57:38.651Z,287.37
2018-11-25T08:00:19.541Z,299.93
2018-11-25T08:02:59.829Z,256.43
2018-11-25T08:05:39.516Z,264.93
2018-11-25T08:08:19.169Z,274.63
2018-11-25T08:10:59.017Z,300.80
2018-11-25T08:13:38.849Z,314.47
2018-11-25T08:16:19.483Z,261.23
2018-11-25T08:18:59.006Z,301.67
2018-11-25T08:21:39.008Z,304.03
2018-11-25T08:24:19.406Z,334.57
2018-11-25T08:26:59.665Z,301.03
2018-11-25T08:29:39.646Z,360.37
2018-11-25T08:32:19.315Z,288.63
2018-11-25T08:34:58.998Z,310.83
2018-11-25T08:37:38.810Z,299.93
2018-11-25T08:40:20.594Z,318.33
2018-11-25T08:43:00.446Z,305.83
2018-11-25T08:45:40.380Z,343.67
2018-11-25T08:48:20.978Z,295.67
2018-11-25T08:51:00.724Z,329.93
2018-11-25T08:53:41.694Z,293.83
2018-11-25T08:56:21.949Z,307.67
2018-11-25T08:59:01.683Z,275.90
2018-11-25T09:01:41.406Z,307.87
2018-11-25T09:04:21.939Z,301.33
2018-11-25T09:07:02.218Z,296.63
2018-11-25T09:09:41.966Z,269.13
2018-11-25T09:12:22.784Z,337.97
2018-11-25T09:15:03.290Z,304.80
2018-11-25T09:17:43.876Z,278.97
2018-11-25T09:20:23.566Z,269.17
2018-11-25T09:23:04.679Z,288.30
2018-11-25T09:25:45.101Z,314.33
2018-11-25T09:28:24.847Z,272.90
2018-11-25T09:31:05.553Z,291.33
2018-11-25T09:33:46.254Z,259.73
2018-11-25T09:36:25.898Z,290.30
2018-11-25T09:45:20.271Z,216.23
2018-11-25T09:48:00.634Z,264.60
2018-11-25T09:50:40.511Z,268.17
2018-11-25T09:53:20.397Z,266.87
2018-11-25T09:56:01.030Z,274.33
2018-11-25T09:58:41.656Z,278.67
2018-11-25T10:01:21.486Z,300.10
2018-11-25T10:04:01.219Z,255.00
2018-11-25T10:06:41.235Z,286.53
2018-11-25T10:09:20.977Z,233.67
2018-11-25T10:12:00.923Z,284.70
2018-11-25T10:14:40.579Z,270.30
2018-11-25T10:17:20.528Z,290.87
2018-11-25T10:19:54.230Z,350.63
2018-11-25T10:22:27.982Z,346.63
2018-11-25T10:25:01.810Z,324.50
2018-11-25T10:27:35.402Z,342.73
2018-11-25T10:30:39.943Z,373.27
2018-11-25T10:33:14.023Z,348.97
2018-11-25T10:35:47.953Z,421.50
2018-11-25T10:38:21.738Z,360.43
2018-11-25T10:40:55.151Z,385.07
2018-11-25T10:43:29.004Z,388.10
2018-11-25T10:46:02.738Z,416.20
2018-11-25T10:48:37.098Z,400.23
2018-11-25T10:51:10.919Z,415.63
2018-11-25T10:53:44.711Z,414.23
2018-11-25T10:56:18.360Z,355.87
2018-11-25T10:58:52.790Z,421.63
2018-11-25T11:01:32.344Z,406.83
2018-11-25T11:04:07.632Z,381.37
2018-11-25T11:06:47.293Z,412.20
2018-11-25T11:09:21.498Z,432.57
2018-11-25T11:11:55.215Z,418.33
2018-11-25T11:14:29.291Z,405.73
2018-11-25T11:17:02.949Z,420.30
2018-11-25T11:19:36.642Z,410.27
2018-11-25T11:22:10.181Z,439.03
2018-11-25T11:24:43.986Z,429.87
2018-11-25T11:27:17.650Z,422.80
2018-11-25T11:29:51.223Z,367.93
2018-11-25T11:32:24.799Z,400.47
2018-11-25T11:34:58.680Z,421.83
2018-11-25T11:37:32.567Z,354.53
2018-11-25T11:40:08.167Z,366.70
2018-11-25T11:42:42.034Z,348.67
2018-11-25T11:45:15.878Z,373.67
2018-11-25T11:47:49.905Z,295.73
2018-11-25T11:50:23.555Z,344.80
2018-11-25T11:52:57.246Z,315.23
2018-11-25T11:55:31.214Z,356.43
2018-11-25T11:58:05.247Z,253.67
2018-11-25T12:00:39.736Z,297.07
2018-11-25T12:03:13.293Z,361.37
2018-11-25T12:05:47.206Z,318.40
2018-11-25T12:08:20.730Z,333.23
2018-11-25T12:10:54.331Z,277.63
2018-11-25T12:13:28.165Z,286.93
2018-11-25T12:16:01.844Z,271.67
2018-11-25T12:18:35.922Z,284.67
2018-11-25T12:21:10.252Z,280.60
2018-11-25T12:23:44.147Z,292.87
2018-11-25T12:26:25.415Z,267.67
2018-11-25T12:28:59.179Z,275.97
2018-11-25T12:31:32.703Z,287.70
2018-11-25T12:34:07.089Z,273.97
2018-11-25T12:36:41.152Z,297.47
2018-11-25T12:39:14.959Z,253.17
2018-11-25T12:41:48.444Z,262.60
2018-11-25T12:44:25.738Z,239.10
2018-11-25T12:46:55.914Z,249.57
2018-11-25T12:49:29.566Z,271.03
2018-11-25T12:52:03.165Z,270.40
2018-11-25T12:54:36.817Z,252.13
2018-11-25T12:57:10.554Z,269.63
2018-11-25T12:59:44.298Z,282.10
2018-11-25T13:02:17.972Z,289.03
2018-11-25T13:04:51.758Z,290.73
2018-11-25T13:07:26.173Z,272.73
2018-11-25T13:10:00.192Z,263.70
2018-11-25T13:12:34.001Z,274.67
2018-11-25T13:15:08.030Z,275.97
2018-11-25T13:17:42.422Z,278.40
2018-11-25T13:20:16.611Z,259.43
2018-11-25T13:22:50.889Z,267.93
2018-11-25T13:25:24.570Z,282.50
2018-11-25T13:27:58.533Z,256.73
2018-11-25T13:30:32.610Z,276.23
2018-11-25T13:33:07.026Z,250.27
2018-11-25T13:35:40.783Z,302.33
2018-11-25T13:38:14.570Z,300.07
2018-11-25T13:40:49.487Z,295.17
2018-11-25T13:43:21.982Z,313.23
2018-11-25T13:45:55.698Z,318.50
2018-11-25T13:48:29.395Z,312.27
2018-11-25T13:51:07.053Z,301.10
2018-11-25T13:53:40.791Z,319.30
2018-11-25T13:56:22.056Z,297.83
2018-11-25T13:58:55.769Z,326.03
2018-11-25T14:01:29.313Z,306.60
2018-11-25T14:04:03.038Z,327.97
2018-11-25T14:06:36.759Z,354.20
2018-11-25T14:09:13.298Z,358.80
2018-11-25T14:11:46.837Z,317.40
2018-11-25T14:14:20.677Z,328.37
2018-11-25T14:16:55.304Z,314.17
2018-11-25T14:19:29.092Z,343.23
2018-11-25T14:22:02.775Z,360.03
2018-11-25T14:24:36.357Z,354.70
2018-11-25T14:27:10.171Z,306.27
2018-11-25T14:29:44.006Z,345.53
2018-11-25T14:32:18.412Z,321.77
2018-11-25T14:34:52.282Z,353.27
2018-11-25T14:37:26.138Z,334.00
2018-11-25T14:39:59.936Z,292.73
2018-11-25T14:42:34.187Z,313.77
2018-11-25T14:45:10.471Z,287.63
2018-11-25T14:47:44.479Z,296.47
2018-11-25T14:50:18.854Z,293.37
2018-11-25T14:52:52.683Z,303.30
2018-11-25T14:55:27.225Z,321.90
2018-11-25T14:58:01.213Z,278.70
2018-11-25T15:00:35.542Z,298.63
2018-11-25T15:03:09.236Z,297.77
2018-11-25T15:05:45.269Z,306.83
2018-11-25T15:08:22.376Z,334.90
2018-11-25T15:10:56.325Z,344.87
2018-11-25T15:13:30.046Z,263.30
2018-11-25T15:16:06.380Z,291.00
2018-11-25T15:18:40.370Z,300.83
2018-11-25T15:21:14.798Z,331.70
2018-11-25T15:23:48.411Z,313.87
2018-11-25T15:26:22.225Z,316.20
2018-11-25T15:28:55.794Z,318.57
2018-11-25T15:31:29.607Z,315.93
2018-11-25T15:34:04.249Z,343.43
2018-11-25T15:36:37.865Z,319.20
2018-11-25T15:39:11.697Z,359.30
2018-11-25T15:41:45.781Z,314.30
2018-11-25T15:44:20.180Z,354.90
2018-11-25T15:46:53.765Z,345.83
2018-11-25T15:49:27.435Z,334.60
2018-11-25T15:52:03.039Z,338.73
2018-11-25T15:54:35.405Z,348.23
2018-11-25T15:57:09.228Z,346.73
2018-11-25T15:59:43.043Z,386.60
2018-11-25T16:02:16.656Z,318.27
2018-11-25T16:04:50.201Z,357.77
2018-11-25T16:07:23.911Z,355.70
2018-11-25T16:09:57.825Z,388.80
2018-11-25T16:12:32.158Z,340.67
2018-11-25T16:15:10.183Z,380.50
2018-11-25T16:20:26.007Z,382.27
2018-11-25T16:23:02.898Z,377.00
2018-11-25T16:25:41.546Z,349.10
2018-11-25T16:28:27.123Z,405.07
2018-11-25T16:31:00.734Z,336.03
2018-11-25T16:33:34.924Z,350.30
2018-11-25T16:36:09.159Z,381.90
2018-11-25T16:38:42.790Z,364.73
2018-11-25T16:41:16.661Z,345.43
2018-11-25T16:43:50.241Z,353.07
2018-11-25T16:46:23.817Z,360.17
2018-11-25T16:48:57.618Z,316.07
2018-11-25T16:51:31.531Z,348.97
2018-11-25T16:54:05.247Z,327.20
2018-11-25T16:56:38.735Z,396.57
2018-11-25T16:59:12.555Z,317.77
2018-11-25T17:01:46.243Z,311.23
2018-11-25T17:04:19.777Z,302.00
2018-11-25T17:06:53.877Z,346.63
2018-11-25T17:09:27.449Z,362.70
2018-11-25T17:12:01.115Z,344.60
2018-11-25T17:14:35.026Z,323.07
2018-11-25T17:17:09.526Z,320.47
2018-11-25T17:19:42.967Z,353.10
2018-11-25T17:22:16.859Z,350.03
2018-11-25T17:24:51.092Z,333.00
2018-11-25T17:27:24.766Z,305.00
2018-11-25T17:29:58.368Z,319.77
2018-11-25T17:32:32.160Z,314.33
2018-11-25T17:35:08.782Z,325.90
2018-11-25T17:37:42.534Z,299.33
2018-11-25T17:40:16.332Z,293.23
2018-11-25T17:42:50.186Z,352.47
2018-11-25T17:45:24.555Z,342.33
2018-11-25T17:47:58.251Z,323.50
2018-11-25T17:50:31.883Z,305.23
2018-11-25T17:53:06.290Z,335.47
2018-11-25T17:55:40.688Z,339.40
2018-11-25T17:58:14.154Z,318.23
2018-11-25T18:01:05.887Z,315.07
2018-11-25T18:03:39.725Z,329.83
2018-11-25T18:06:13.330Z,333.83
2018-11-25T18:08:46.945Z,303.57
2018-11-25T18:11:20.570Z,334.23
2018-11-25T18:13:55.233Z,313.30
2018-11-25T18:16:28.897Z,328.40
2018-11-25T18:19:13.718Z,356.77
2018-11-25T18:21:50.573Z,330.07
2018-11-25T18:24:25.023Z,305.83
2018-11-25T18:26:58.479Z,361.07
2018-11-25T18:29:32.094Z,312.40
2018-11-25T18:32:05.770Z,288.57
2018-11-25T18:34:39.375Z,340.07
2018-11-25T18:37:13.363Z,330.73
2018-11-25T18:39:47.302Z,314.80
2018-11-25T18:42:20.883Z,327.20
2018-11-25T18:44:54.557Z,306.50
2018-11-25T18:47:28.280Z,325.60
2018-11-25T18:50:02.230Z,364.20
2018-11-25T18:52:35.994Z,316.53
2018-11-25T18:55:08.786Z,336.63
2018-11-25T18:57:42.493Z,336.40
2018-11-25T19:00:28.206Z,310.60
2018-11-25T19:03:01.710Z,274.77
2018-11-25T19:05:35.803Z,280.17
2018-11-25T19:08:09.254Z,306.63
2018-11-25T19:10:43.067Z,303.20
2018-11-25T19:13:16.758Z,350.43
2018-11-25T19:15:50.549Z,287.47
2018-11-25T19:18:24.150Z,294.70
2018-11-25T19:20:57.962Z,284.37
2018-11-25T19:23:31.667Z,327.13
2018-11-25T19:26:06.065Z,262.20
2018-11-25T19:28:40.499Z,279.57
2018-11-25T19:31:14.153Z,261.50
2018-11-25T19:33:47.869Z,291.23
2018-11-25T19:36:21.642Z,293.07
2018-11-25T19:38:55.200Z,296.03
2018-11-25T19:41:28.798Z,304.77
2018-11-25T19:44:02.605Z,300.27
2018-11-25T19:46:36.167Z,323.43
2018-11-25T19:49:09.678Z,302.77
2018-11-25T19:51:43.225Z,297.43
2018-11-25T19:54:17.360Z,312.73
2018-11-25T19:56:50.923Z,269.73
2018-11-25T19:59:24.484Z,295.97
2018-11-25T20:01:58.124Z,307.60
2018-11-25T20:04:31.758Z,218.57
2018-11-25T20:07:05.420Z,278.57
2018-11-25T20:10:00.139Z,243.20
2018-11-25T20:12:39.678Z,277.53
2018-11-25T20:15:14.975Z,243.13
2018-11-25T20:17:54.364Z,288.87
2018-11-25T20:20:25.185Z,293.37
2018-11-25T20:22:59.028Z,329.40
2018-11-25T20:25:32.697Z,240.47
2018-11-25T20:28:06.400Z,309.07
2018-11-25T20:30:40.652Z,285.53
2018-11-25T20:33:20.229Z,284.33
2018-11-25T20:35:54.323Z,294.43
2018-11-25T20:39:37.424Z,302.60
2018-11-25T20:42:11.662Z,240.87
2018-11-25T20:44:45.558Z,250.40
2018-11-25T20:47:19.096Z,261.37
2018-11-25T20:49:52.582Z,263.20
2018-11-25T20:52:32.152Z,263.10
2018-11-25T20:55:06.839Z,254.90
2018-11-25T20:57:40.975Z,266.50
2018-11-25T21:00:17.247Z,240.43
2018-11-25T21:02:50.909Z,287.30
2018-11-25T21:05:24.416Z,252.30
2018-11-25T21:07:58.218Z,249.53
2018-11-25T21:10:31.977Z,270.97
2018-11-25T21:13:06.808Z,262.60
2018-11-25T21:15:40.913Z,254.40
2018-11-25T21:18:14.527Z,224.00
2018-11-25T21:20:51.363Z,235.40
2018-11-25T21:23:22.229Z,239.20
2018-11-25T21:26:01.883Z,234.83
2018-11-25T21:28:36.058Z,238.97
2018-11-25T21:31:09.889Z,242.27
2018-11-25T21:33:44.046Z,220.70
2018-11-25T21:36:17.795Z,230.77
2018-11-25T21:38:51.338Z,213.63
2018-11-25T21:41:25.244Z,200.13
2018-11-25T21:43:59.118Z,245.37
2018-11-25T21:46:33.032Z,210.63
2018-11-25T21:49:06.799Z,214.93
2018-11-25T21:51:40.483Z,194.70
2018-11-25T21:54:14.431Z,206.30
2018-11-25T21:56:49.095Z,214.93
2018-11-25T21:59:23.134Z,198.80
2018-11-25T22:01:56.970Z,211.13
2018-11-25T22:04:30.813Z,202.00
2018-11-25T22:07:04.914Z,213.67
2018-11-25T22:09:38.580Z,198.67
2018-11-25T22:12:13.018Z,217.97
2018-11-25T22:14:47.549Z,194.93
2018-11-25T22:17:21.167Z,209.70
2018-11-25T22:19:54.950Z,199.40
2018-11-25T22:22:28.946Z,177.53
2018-11-25T22:25:02.850Z,214.03
2018-11-25T22:27:36.396Z,224.27
2018-11-25T22:30:15.081Z,215.80
2018-11-25T22:32:49.309Z,204.33
2018-11-25T22:35:23.135Z,191.67
2018-11-25T22:37:56.889Z,202.87
2018-11-25T22:40:30.703Z,204.10
2018-11-25T22:43:04.498Z,217.17
2018-11-25T22:45:38.275Z,213.47
2018-11-25T22:48:11.919Z,214.00
2018-11-25T22:50:45.902Z,216.03
2018-11-25T22:53:19.395Z,203.10
2018-11-25T22:55:53.295Z,193.27
2018-11-25T22:58:27.987Z,187.13
2018-11-25T23:01:02.240Z,220.47
2018-11-25T23:03:36.049Z,197.17
2018-11-25T23:06:21.196Z,208.87
2018-11-25T23:08:55.479Z,196.57
2018-11-25T23:11:29.254Z,182.30
2018-11-25T23:14:03.413Z,184.80
2018-11-25T23:16:36.886Z,200.90
2018-11-25T23:19:10.871Z,205.43
2018-11-25T23:21:44.618Z,191.53
2018-11-25T23:24:18.770Z,212.70
2018-11-25T23:26:52.377Z,228.03
2018-11-25T23:29:26.097Z,211.40
2018-11-25T23:31:59.905Z,193.43
2018-11-25T23:34:33.710Z,207.40
2018-11-25T23:37:08.639Z,177.73
2018-11-25T23:39:42.898Z,200.10
2018-11-25T23:42:16.712Z,182.67
2018-11-25T23:44:50.313Z,183.03
2018-11-25T23:47:24.047Z,178.80
2018-11-25T23:49:57.652Z,169.67
2018-11-25T23:52:31.272Z,180.30
